Time;durP1;ratioP1;P1;durP2;ratioP2;P2;SDS_P1;SDS_P2;PMS_P1;PMS_P2;Temp;Humidity;BMP_temperature;BMP_pressure;BME280_temperature;BME280_humidity;BME280_pressure;Samples;Min_cycle;Max_cycle;Signal;HPM_P1;HPM_P2
2022/05/18 00:01:56;;;;;;;;;;;;;;;;;;5068634;28;19919;-59
2022/05/18 00:04:22;;;;;;;;;;;;;;;;;;5069645;28;20366;-58
2022/05/18 00:06:48;;;;;;;;;;;;;;;;;;5070493;28;19981;-58
2022/05/18 00:09:14;;;;;;;;;;;;;;;;;;5069826;28;19966;-58
2022/05/18 00:11:40;;;;;;;;;;;;;;;;;;5068590;28;19912;-58
2022/05/18 00:14:06;;;;;;;;;;;;;;;;;;5069722;28;19905;-58
2022/05/18 00:16:32;;;;;;;;;;;;;;;;;;5069604;28;19991;-58
2022/05/18 00:18:58;;;;;;;;;;;;;;;;;;5069508;28;19938;-58
2022/05/18 00:21:25;;;;;;;;;;;;;;;;;;5068004;28;19965;-58
2022/05/18 00:23:51;;;;;;;;;;;;;;;;;;5069179;28;19919;-58
2022/05/18 00:26:17;;;;;;;;;;;;;;;;;;5070060;28;19905;-58
2022/05/18 00:28:43;;;;;;;;;;;;;;;;;;5069201;28;19950;-58
2022/05/18 00:31:09;;;;;;;;;;;;;;;;;;5066297;28;19912;-59
2022/05/18 00:33:34;;;;;;;;;;;;;;;;;;5067153;28;19908;-58
2022/05/18 00:36:01;;;;;;;;;;;;;;;;;;5066831;28;19908;-58
2022/05/18 00:38:28;;;;;;;;;;;;;;;;;;5067497;28;20318;-58
2022/05/18 00:40:54;;;;;;;;;;;;;;;;;;5066843;28;20004;-59
2022/05/18 00:43:21;;;;;;;;;;;;;;;;;;5067601;28;19912;-59
2022/05/18 00:45:47;;;;;;;;;;;;;;;;;;5068230;28;20476;-58
2022/05/18 00:48:13;;;;;;;;;;;;;;;;;;5067493;28;20002;-58
2022/05/18 00:50:40;;;;;;;;;;;;;;;;;;5066457;28;19999;-59
2022/05/18 00:53:06;;;;;;;;;;;;;;;;;;5067202;28;19904;-58
2022/05/18 00:55:32;;;;;;;;;;;;;;;;;;5067176;28;19908;-59
2022/05/18 00:57:58;;;;;;;;;;;;;;;;;;5065448;28;19915;-59
2022/05/18 01:00:24;;;;;;;;;;;;;;;;;;5067265;28;19908;-59
2022/05/18 01:02:50;;;;;;;;;;;;;;;;;;5067295;28;19915;-59
2022/05/18 01:05:17;;;;;;;;;;;;;;;;;;5067966;28;19908;-58
2022/05/18 01:07:44;;;;;;;;;;;;;;;;;;5066209;28;19966;-58
2022/05/18 01:10:09;;;;;;;;;;;;;;;;;;5067412;28;19908;-58
2022/05/18 01:12:35;;;;;;;;;;;;;;;;;;5067139;28;19961;-58
2022/05/18 01:15:02;;;;;;;;;;;;;;;;;;5068806;28;20521;-58
2022/05/18 01:17:29;;;;;;;;;;;;;;;;;;5067530;28;20008;-58
2022/05/18 01:19:55;;;;;;;;;;;;;;;;;;5068571;28;19908;-58
2022/05/18 01:22:21;;;;;;;;;;;;;;;;;;5068176;28;19947;-58
2022/05/18 01:24:47;;;;;;;;;;;;;;;;;;5068889;28;19948;-58
2022/05/18 01:27:13;;;;;;;;;;;;;;;;;;5065611;28;20025;-58
2022/05/18 01:29:39;;;;;;;;;;;;;;;;;;5067224;28;19909;-58
2022/05/18 01:32:05;;;;;;;;;;;;;;;;;;5067803;28;19909;-58
2022/05/18 01:34:31;;;;;;;;;;;;;;;;;;5068081;28;19908;-58
2022/05/18 01:36:57;;;;;;;;;;;;;;;;;;5066387;28;20003;-58
2022/05/18 01:39:23;;;;;;;;;;;;;;;;;;5068002;28;19904;-58
2022/05/18 01:41:50;;;;;;;;;;;;;;;;;;5068588;28;19904;-58
2022/05/18 01:44:16;;;;;;;;;;;;;;;;;;5068548;28;19912;-58
2022/05/18 01:46:42;;;;;;;;;;;;;;;;;;5066519;28;19981;-58
2022/05/18 01:49:09;;;;;;;;;;;;;;;;;;5068049;28;19939;-58
2022/05/18 01:51:35;;;;;;;;;;;;;;;;;;5067421;28;19958;-58
2022/05/18 01:54:00;;;;;;;;;;;;;;;;;;5067922;28;19920;-58
2022/05/18 01:56:26;;;;;;;;;;;;;;;;;;5066692;28;19966;-58
2022/05/18 01:58:52;;;;;;;;;;;;;;;;;;5067577;28;20002;-58
2022/05/18 02:01:20;;;;;;;;;;;;;;;;;;5068227;28;19916;-58
2022/05/18 02:03:47;;;;;;;;;;;;;;;;;;5067974;28;19912;-58
2022/05/18 02:06:13;;;;;;;;;;;;;;;;;;5067002;28;19912;-58
2022/05/18 02:08:40;;;;;;;;;;;;;;;;;;5066427;28;19934;-58
2022/05/18 02:11:06;;;;;;;;;;;;;;;;;;5067503;28;20283;-58
2022/05/18 02:13:32;;;;;;;;;;;;;;;;;;5067145;28;19904;-58
2022/05/18 02:15:58;;;;;;;;;;;;;;;;;;5067259;28;19994;-58
2022/05/18 02:18:24;;;;;;;;;;;;;;;;;;5065234;28;19912;-59
2022/05/18 02:20:50;;;;;;;;;;;;;;;;;;5067526;28;19904;-58
2022/05/18 02:23:16;;;;;;;;;;;;;;;;;;5066414;28;19919;-58
2022/05/18 02:25:42;;;;;;;;;;;;;;;;;;5067215;28;19905;-58
2022/05/18 02:28:08;;;;;;;;;;;;;;;;;;5066479;28;19942;-58
2022/05/18 02:30:34;;;;;;;;;;;;;;;;;;5066785;28;19939;-58
2022/05/18 02:33:00;;;;;;;;;;;;;;;;;;5066006;28;19908;-58
2022/05/18 02:35:26;;;;;;;;;;;;;;;;;;5066120;28;19912;-58
2022/05/18 02:37:52;;;;;;;;;;;;;;;;;;5066263;28;19935;-58
2022/05/18 02:40:18;;;;;;;;;;;;;;;;;;5067751;28;19904;-58
2022/05/18 02:42:44;;;;;;;;;;;;;;;;;;5066345;28;19939;-58
2022/05/18 02:45:10;;;;;;;;;;;;;;;;;;5066880;28;20095;-58
2022/05/18 02:47:36;;;;;;;;;;;;;;;;;;5063953;28;20534;-58
2022/05/18 02:50:02;;;;;;;;;;;;;;;;;;5066761;28;19915;-58
2022/05/18 02:52:28;;;;;;;;;;;;;;;;;;5066221;28;20267;-58
2022/05/18 02:57:38;;;;;;;;;;;;;;;;;;5065188;28;19950;-58
2022/05/18 03:00:04;;;;;;;;;;;;;;;;;;5066710;28;20355;-58
2022/05/18 03:02:30;;;;;;;;;;;;;;;;;;5066389;28;19904;-58
2022/05/18 03:04:56;;;;;;;;;;;;;;;;;;5066913;28;19950;-58
2022/05/18 03:07:21;;;;;;;;;;;;;;;;;;5065954;28;20011;-58
2022/05/18 03:09:47;;;;;;;;;;;;;;;;;;5066487;28;19915;-58
2022/05/18 03:12:13;;;;;;;;;;;;;;;;;;5066442;28;19908;-58
2022/05/18 03:14:39;;;;;;;;;;;;;;;;;;5066201;28;20385;-56
2022/05/18 03:17:05;;;;;;;;;;;;;;;;;;5065424;28;19965;-57
2022/05/18 03:19:31;;;;;;;;;;;;;;;;;;5065603;28;19912;-56
2022/05/18 03:24:42;;;;;;;;;;;;;;;;;;5065916;28;19947;-56
2022/05/18 03:27:08;;;;;;;;;;;;;;;;;;5065571;28;20348;-56
2022/05/18 03:29:34;;;;;;;;;;;;;;;;;;5065031;28;19908;-56
2022/05/18 03:32:00;;;;;;;;;;;;;;;;;;5065587;28;19959;-56
2022/05/18 03:34:26;;;;;;;;;;;;;;;;;;5065427;28;19948;-56
2022/05/18 03:36:52;;;;;;;;;;;;;;;;;;5066355;28;19908;-56
2022/05/18 03:39:18;;;;;;;;;;;;;;;;;;5067116;28;19931;-56
2022/05/18 03:41:44;;;;;;;;;;;;;;;;;;5065186;28;19958;-56
2022/05/18 03:44:10;;;;;;;;;;;;;;;;;;5066554;28;20456;-56
2022/05/18 03:46:36;;;;;;;;;;;;;;;;;;5065930;28;19995;-56
2022/05/18 03:49:03;;;;;;;;;;;;;;;;;;5066298;28;19909;-56
2022/05/18 03:51:29;;;;;;;;;;;;;;;;;;5064730;28;19935;-56
2022/05/18 03:53:55;;;;;;;;;;;;;;;;;;5065391;28;19917;-56
2022/05/18 03:56:21;;;;;;;;;;;;;;;;;;5066280;28;20023;-56
2022/05/18 03:58:47;;;;;;;;;;;;;;;;;;5066776;28;19909;-56
2022/05/18 04:01:13;;;;;;;;;;;;;;;;;;5065406;28;19947;-56
2022/05/18 04:03:39;;;;;;;;;;;;;;;;;;5065673;28;19909;-56
2022/05/18 04:06:05;;;;;;;;;;;;;;;;;;5064795;28;19916;-56
2022/05/18 04:08:31;;;;;;;;;;;;;;;;;;5058659;28;19911;-56
2022/05/18 04:10:57;;;;;;;;;;;;;;;;;;5069470;28;19912;-56
2022/05/18 04:13:25;;;;;;;;;;;;;;;;;;5069420;28;19999;-56
2022/05/18 04:15:50;;;;;;;;;;;;;;;;;;5070313;28;19958;-56
2022/05/18 04:18:17;;;;;;;;;;;;;;;;;;5069335;28;19913;-56
2022/05/18 04:20:43;;;;;;;;;;;;;;;;;;5069604;28;19905;-56
2022/05/18 04:23:09;;;;;;;;;;;;;;;;;;5069518;28;19909;-56
2022/05/18 04:25:39;;;;;;;;;;;;;;;;;;5067312;28;20071;-56
2022/05/18 04:28:05;;;;;;;;;;;;;;;;;;5069620;28;19904;-56
2022/05/18 04:30:31;;;;;;;;;;;;;;;;;;5068743;28;19908;-56
2022/05/18 04:32:58;;;;;;;;;;;;;;;;;;5068483;28;19912;-57
2022/05/18 04:35:24;;;;;;;;;;;;;;;;;;5068655;28;20432;-56
2022/05/18 04:37:50;;;;;;;;;;;;;;;;;;5070147;28;19948;-56
2022/05/18 04:40:16;;;;;;;;;;;;;;;;;;5072366;28;19904;-56
2022/05/18 04:42:42;;;;;;;;;;;;;;;;;;5089462;28;19948;-56
2022/05/18 04:45:08;;;;;;;;;;;;;;;;;;5082110;28;19920;-56
2022/05/18 04:47:34;;;;;;;;;;;;;;;;;;5069161;28;19912;-56
2022/05/18 04:50:00;;;;;;;;;;;;;;;;;;5069161;28;20018;-56
2022/05/18 04:52:26;;;;;;;;;;;;;;;;;;5068875;28;19958;-56
2022/05/18 04:54:52;;;;;;;;;;;;;;;;;;5068128;28;19920;-56
2022/05/18 04:57:18;;;;;;;;;;;;;;;;;;5068754;28;19918;-56
2022/05/18 04:59:45;;;;;;;;;;;;;;;;;;5068208;28;20290;-56
2022/05/18 05:02:11;;;;;;;;;;;;;;;;;;5068288;28;19981;-56
2022/05/18 05:04:36;;;;;;;;;;;;;;;;;;5069084;28;20378;-56
2022/05/18 05:07:02;;;;;;;;;;;;;;;;;;5068869;28;19987;-56
2022/05/18 05:09:28;;;;;;;;;;;;;;;;;;5068543;28;19923;-56
2022/05/18 05:11:54;;;;;;;;;;;;;;;;;;5067979;28;19954;-56
2022/05/18 05:14:20;;;;;;;;;;;;;;;;;;5066973;28;19953;-56
2022/05/18 05:16:46;;;;;;;;;;;;;;;;;;5068672;28;19908;-56
2022/05/18 05:19:12;;;;;;;;;;;;;;;;;;5067161;28;19916;-56
2022/05/18 05:21:42;;;;;;;;;;;;;;;;;;5068208;28;19908;-56
2022/05/18 05:24:08;;;;;;;;;;;;;;;;;;5068387;28;20413;-57
2022/05/18 05:26:34;;;;;;;;;;;;;;;;;;5068209;28;20322;-56
2022/05/18 05:29:00;;;;;;;;;;;;;;;;;;5067342;28;19904;-58
2022/05/18 05:31:26;;;;;;;;;;;;;;;;;;5068197;28;19919;-58
2022/05/18 05:33:52;;;;;;;;;;;;;;;;;;5067466;28;19909;-58
2022/05/18 05:36:19;;;;;;;;;;;;;;;;;;5068452;28;19912;-58
2022/05/18 05:38:45;;;;;;;;;;;;;;;;;;5068156;28;19908;-56
2022/05/18 05:41:11;;;;;;;;;;;;;;;;;;5068053;28;19916;-56
2022/05/18 05:43:39;;;;;;;;;;;;;;;;;;5067737;28;20334;-56
2022/05/18 05:46:05;;;;;;;;;;;;;;;;;;5068060;28;20361;-56
2022/05/18 05:48:31;;;;;;;;;;;;;;;;;;5067275;28;19906;-57
2022/05/18 05:50:57;;;;;;;;;;;;;;;;;;5067478;28;20023;-56
2022/05/18 05:53:23;;;;;;;;;;;;;;;;;;5067580;28;20534;-56
2022/05/18 05:55:50;;;;;;;;;;;;;;;;;;5067822;28;19912;-56
2022/05/18 05:58:16;;;;;;;;;;;;;;;;;;5067557;28;20673;-56
2022/05/18 06:00:42;;;;;;;;;;;;;;;;;;5064633;28;19966;-56
2022/05/18 06:03:08;;;;;;;;;;;;;;;;;;5067515;28;20571;-56
2022/05/18 06:05:34;;;;;;;;;;;;;;;;;;5067074;28;19912;-56
2022/05/18 06:08:00;;;;;;;;;;;;;;;;;;5067676;28;19912;-56
2022/05/18 06:10:26;;;;;;;;;;;;;;;;;;5067212;28;19904;-56
2022/05/18 06:12:51;;;;;;;;;;;;;;;;;;5066793;28;20232;-56
2022/05/18 06:15:17;;;;;;;;;;;;;;;;;;5064916;28;20004;-57
2022/05/18 06:17:43;;;;;;;;;;;;;;;;;;5059807;28;20231;-57
2022/05/18 06:20:09;;;;;;;;;;;;;;;;;;5065393;28;19916;-57
2022/05/18 06:22:35;;;;;;;;;;;;;;;;;;5067157;28;20387;-57
2022/05/18 06:25:02;;;;;;;;;;;;;;;;;;5067354;28;20042;-57
2022/05/18 06:27:28;;;;;;;;;;;;;;;;;;5067050;28;19908;-58
2022/05/18 06:29:54;;;;;;;;;;;;;;;;;;5065821;28;19942;-57
2022/05/18 06:32:20;;;;;;;;;;;;;;;;;;5065958;28;19918;-58
2022/05/18 06:34:46;;;;;;;;;;;;;;;;;;5066550;28;19904;-58
2022/05/18 06:37:12;;;;;;;;;;;;;;;;;;5065222;28;20297;-58
2022/05/18 06:39:38;;;;;;;;;;;;;;;;;;5064188;28;19916;-58
2022/05/18 06:42:04;;;;;;;;;;;;;;;;;;5066784;28;19920;-57
2022/05/18 06:44:30;;;;;;;;;;;;;;;;;;5065426;28;19959;-57
2022/05/18 06:46:56;;;;;;;;;;;;;;;;;;5065293;28;19912;-57
2022/05/18 06:49:23;;;;;;;;;;;;;;;;;;5067052;28;19904;-57
2022/05/18 06:51:49;;;;;;;;;;;;;;;;;;5062895;28;19913;-57
2022/05/18 06:54:15;;;;;;;;;;;;;;;;;;5053475;28;19912;-57
2022/05/18 06:56:41;;;;;;;;;;;;;;;;;;5065350;28;20001;-57
2022/05/18 06:59:07;;;;;;;;;;;;;;;;;;5066218;28;19912;-57
2022/05/18 07:01:32;;;;;;;;;;;;;;;;;;5066478;28;19911;-57
2022/05/18 07:03:58;;;;;;;;;;;;;;;;;;5064164;28;19969;-57
2022/05/18 07:06:24;;;;;;;;;;;;;;;;;;5066202;28;19923;-57
2022/05/18 07:08:51;;;;;;;;;;;;;;;;;;5065612;28;19904;-57
2022/05/18 07:11:17;;;;;;;;;;;;;;;;;;5066578;28;19913;-57
2022/05/18 07:13:43;;;;;;;;;;;;;;;;;;5065332;28;19904;-57
2022/05/18 07:16:09;;;;;;;;;;;;;;;;;;5066346;28;20333;-57
2022/05/18 07:18:35;;;;;;;;;;;;;;;;;;5065671;28;19908;-57
2022/05/18 07:21:02;;;;;;;;;;;;;;;;;;5066343;28;19909;-57
2022/05/18 07:23:28;;;;;;;;;;;;;;;;;;5065871;28;20449;-57
2022/05/18 07:25:54;;;;;;;;;;;;;;;;;;5064803;28;19917;-57
2022/05/18 07:28:20;;;;;;;;;;;;;;;;;;5065234;28;19908;-57
2022/05/18 07:30:46;;;;;;;;;;;;;;;;;;5065900;28;19904;-57
2022/05/18 07:33:12;;;;;;;;;;;;;;;;;;5065511;28;19905;-57
2022/05/18 07:35:38;;;;;;;;;;;;;;;;;;5066962;28;19904;-57
2022/05/18 07:38:04;;;;;;;;;;;;;;;;;;5063194;28;20022;-57
2022/05/18 07:40:30;;;;;;;;;;;;;;;;;;5065934;28;20274;-57
2022/05/18 07:42:57;;;;;;;;;;;;;;;;;;5064800;28;19915;-57
2022/05/18 07:45:23;;;;;;;;;;;;;;;;;;5068090;28;20049;-57
2022/05/18 07:47:51;;;;;;;;;;;;;;;;;;5071176;28;19997;-57
2022/05/18 07:50:17;;;;;;;;;;;;;;;;;;5070974;28;20379;-57
2022/05/18 07:52:43;;;;;;;;;;;;;;;;;;5068684;28;20334;-57
2022/05/18 07:55:10;;;;;;;;;;;;;;;;;;5069508;28;19999;-58
2022/05/18 07:57:36;;;;;;;;;;;;;;;;;;5070235;28;19908;-58
2022/05/18 08:00:02;;;;;;;;;;;;;;;;;;5070319;28;20382;-57
2022/05/18 08:02:29;;;;;;;;;;;;;;;;;;5068088;28;20367;-57
2022/05/18 08:04:55;;;;;;;;;;;;;;;;;;5070802;28;19908;-57
2022/05/18 08:07:21;;;;;;;;;;;;;;;;;;5068862;28;19985;-57
2022/05/18 08:15:16;;;;;;;;;;;;;;;;;;5065434;28;19932;-57
2022/05/18 08:17:43;;;;;;;;;;;;;;;;;;5050423;28;20375;-57
2022/05/18 08:20:09;;;;;;;;;;;;;;;;;;5069117;28;20009;-57
2022/05/18 08:22:36;;;;;;;;;;;;;;;;;;5069727;28;20386;-58
2022/05/18 08:25:02;;;;;;;;;;;;;;;;;;5056829;28;20398;-57
2022/05/18 08:27:28;;;;;;;;;;;;;;;;;;5067884;28;19913;-58
2022/05/18 08:29:54;;;;;;;;;;;;;;;;;;5071999;28;20759;-58
2022/05/18 08:32:20;;;;;;;;;;;;;;;;;;5070885;28;19947;-57
2022/05/18 08:34:46;;;;;;;;;;;;;;;;;;5069981;28;19904;-58
2022/05/18 08:37:12;;;;;;;;;;;;;;;;;;5068036;28;19912;-57
2022/05/18 08:39:38;;;;;;;;;;;;;;;;;;5063254;28;20007;-57
2022/05/18 08:42:04;;;;;;;;;;;;;;;;;;5069102;28;19908;-58
2022/05/18 08:44:31;;;;;;;;;;;;;;;;;;5068049;28;19916;-58
2022/05/18 08:46:57;;;;;;;;;;;;;;;;;;5067352;28;20371;-58
2022/05/18 08:49:23;;;;;;;;;;;;;;;;;;5070392;28;19904;-58
2022/05/18 08:51:49;;;;;;;;;;;;;;;;;;5069934;28;19970;-58
2022/05/18 08:54:14;;;;;;;;;;;;;;;;;;5069975;28;19920;-58
2022/05/18 08:56:40;;;;;;;;;;;;;;;;;;5066953;28;19912;-58
2022/05/18 08:59:07;;;;;;;;;;;;;;;;;;5068617;28;19987;-58
2022/05/18 09:01:35;;;;;;;;;;;;;;;;;;5068477;28;19905;-58
2022/05/18 09:04:02;;;;;;;;;;;;;;;;;;5068080;28;19912;-58
2022/05/18 09:06:29;;;;;;;;;;;;;;;;;;5067563;28;19943;-59
2022/05/18 09:11:39;;;;;;;;;;;;;;;;;;5049137;28;19951;-58
2022/05/18 09:14:05;;;;;;;;;;;;;;;;;;5066756;28;19951;-58
2022/05/18 09:16:31;;;;;;;;;;;;;;;;;;5069378;28;19908;-58
2022/05/18 09:18:57;;;;;;;;;;;;;;;;;;5069244;28;19950;-58
2022/05/18 09:21:23;;;;;;;;;;;;;;;;;;5069884;28;19905;-58
2022/05/18 09:23:49;;;;;;;;;;;;;;;;;;5069333;28;19908;-58
2022/05/18 09:26:16;;;;;;;;;;;;;;;;;;5069160;28;19915;-58
2022/05/18 09:28:42;;;;;;;;;;;;;;;;;;5069122;28;19911;-58
2022/05/18 09:31:08;;;;;;;;;;;;;;;;;;5069283;28;19924;-60
2022/05/18 09:33:34;;;;;;;;;;;;;;;;;;5071850;28;19908;-60
2022/05/18 09:36:00;;;;;;;;;;;;;;;;;;5068341;28;19920;-60
2022/05/18 09:38:26;;;;;;;;;;;;;;;;;;5067715;28;20016;-61
2022/05/18 09:40:53;;;;;;;;;;;;;;;;;;5068318;28;19908;-60
2022/05/18 09:43:19;;;;;;;;;;;;;;;;;;5067602;28;20368;-61
2022/05/18 09:45:44;;;;;;;;;;;;;;;;;;5065310;28;19909;-60
2022/05/18 09:48:10;;;;;;;;;;;;;;;;;;5062282;28;19919;-61
2022/05/18 09:50:37;;;;;;;;;;;;;;;;;;5069533;28;20030;-61
2022/05/18 09:53:03;;;;;;;;;;;;;;;;;;5068721;28;19970;-60
2022/05/18 09:55:29;;;;;;;;;;;;;;;;;;5075061;28;19974;-61
2022/05/18 09:57:56;;;;;;;;;;;;;;;;;;5067271;28;19978;-62
2022/05/18 10:00:22;;;;;;;;;;;;;;;;;;5066138;28;20283;-60
2022/05/18 10:08:18;;;;;;;;;;;;;;;;;;5068109;28;19915;-61
2022/05/18 10:10:44;;;;;;;;;;;;;;;;;;5067730;28;20352;-61
2022/05/18 10:13:11;;;;;;;;;;;;;;;;;;5067546;28;19920;-61
2022/05/18 10:15:37;;;;;;;;;;;;;;;;;;5068165;28;19908;-60
2022/05/18 10:18:04;;;;;;;;;;;;;;;;;;5066519;28;19915;-62
2022/05/18 10:20:30;;;;;;;;;;;;;;;;;;5067559;28;19916;-61
2022/05/18 10:22:56;;;;;;;;;;;;;;;;;;5068096;28;19908;-61
2022/05/18 10:25:22;;;;;;;;;;;;;;;;;;5066668;28;19919;-61
2022/05/18 10:27:48;;;;;;;;;;;;;;;;;;5056728;28;20529;-61
2022/05/18 10:30:14;;;;;;;;;;;;;;;;;;5062351;28;19970;-60
2022/05/18 10:32:40;;;;;;;;;;;;;;;;;;5067417;28;19909;-58
2022/05/18 10:35:06;;;;;;;;;;;;;;;;;;5063720;28;19916;-58
2022/05/18 10:37:32;;;;;;;;;;;;;;;;;;5065942;28;19908;-58
2022/05/18 10:39:58;;;;;;;;;;;;;;;;;;5068239;28;19931;-58
2022/05/18 10:42:24;;;;;;;;;;;;;;;;;;5064158;28;20414;-58
2022/05/18 10:44:50;;;;;;;;;;;;;;;;;;5065988;28;19942;-56
2022/05/18 10:47:16;;;;;;;;;;;;;;;;;;5064557;28;20418;-56
2022/05/18 10:49:43;;;;;;;;;;;;;;;;;;5067337;28;19908;-57
2022/05/18 10:52:08;;;;;;;;;;;;;;;;;;5067860;28;19908;-57
2022/05/18 10:54:34;;;;;;;;;;;;;;;;;;5066817;28;19923;-57
2022/05/18 10:57:00;;;;;;;;;;;;;;;;;;5067182;28;19916;-57
2022/05/18 10:59:26;;;;;;;;;;;;;;;;;;5067304;28;20007;-57
2022/05/18 11:01:54;;;;;;;;;;;;;;;;;;5066961;28;20003;-57
2022/05/18 11:04:20;;;;;;;;;;;;;;;;;;5067958;28;20280;-56
2022/05/18 11:06:46;;;;;;;;;;;;;;;;;;5067486;28;19916;-56
2022/05/18 11:09:12;;;;;;;;;;;;;;;;;;5067472;28;19904;-55
2022/05/18 11:11:38;;;;;;;;;;;;;;;;;;5067142;28;19909;-57
2022/05/18 11:14:04;;;;;;;;;;;;;;;;;;5067314;28;19912;-60
2022/05/18 11:16:30;;;;;;;;;;;;;;;;;;5066799;28;19909;-58
2022/05/18 11:18:57;;;;;;;;;;;;;;;;;;5066956;28;19916;-58
2022/05/18 11:21:22;;;;;;;;;;;;;;;;;;5067935;28;19947;-58
2022/05/18 11:23:48;;;;;;;;;;;;;;;;;;5066892;28;20025;-59
2022/05/18 11:26:14;;;;;;;;;;;;;;;;;;5066599;28;19908;-59
2022/05/18 11:28:40;;;;;;;;;;;;;;;;;;5067072;28;19904;-59
2022/05/18 11:31:06;;;;;;;;;;;;;;;;;;5066771;28;19955;-58
2022/05/18 11:33:32;;;;;;;;;;;;;;;;;;5065305;28;19913;-58
2022/05/18 11:35:58;;;;;;;;;;;;;;;;;;5063783;28;19912;-57
2022/05/18 11:38:24;;;;;;;;;;;;;;;;;;5065315;28;19920;-59
2022/05/18 11:40:50;;;;;;;;;;;;;;;;;;5057413;28;19912;-59
2022/05/18 11:43:25;;;;;;;;;;;;;;;;;;5065940;28;19957;-59
2022/05/18 11:45:52;;;;;;;;;;;;;;;;;;5063684;28;19913;-58
2022/05/18 11:48:17;;;;;;;;;;;;;;;;;;5062551;28;19926;-58
2022/05/18 11:50:43;;;;;;;;;;;;;;;;;;5065880;28;20062;-57
2022/05/18 11:53:09;;;;;;;;;;;;;;;;;;5066364;28;19908;-57
2022/05/18 11:55:35;;;;;;;;;;;;;;;;;;5065154;28;19904;-57
2022/05/18 11:58:01;;;;;;;;;;;;;;;;;;5064698;28;19904;-58
2022/05/18 12:01:00;;;;;;;;;;;;;;;;;;5064545;28;20387;-57
2022/05/18 12:03:20;;;;;;;;;;;;;;;;;;5061767;28;19907;-58
2022/05/18 12:05:46;;;;;;;;;;;;;;;;;;5064785;28;19918;-58
2022/05/18 12:08:25;;;;;;;;;;;;;;;;;;5064410;28;19904;-58
2022/05/18 12:10:52;;;;;;;;;;;;;;;;;;5064924;28;19909;-57
2022/05/18 12:13:18;;;;;;;;;;;;;;;;;;5064472;28;19950;-57
2022/05/18 12:15:44;;;;;;;;;;;;;;;;;;5064150;28;19912;-58
2022/05/18 12:18:09;;;;;;;;;;;;;;;;;;5064644;28;19908;-57
2022/05/18 12:20:36;;;;;;;;;;;;;;;;;;5064466;28;19958;-58
2022/05/18 12:23:03;;;;;;;;;;;;;;;;;;5064360;28;19909;-58
2022/05/18 12:25:29;;;;;;;;;;;;;;;;;;5064132;28;19909;-57
2022/05/18 12:27:55;;;;;;;;;;;;;;;;;;5064248;28;19905;-58
2022/05/18 12:30:21;;;;;;;;;;;;;;;;;;5064668;28;19908;-58
2022/05/18 12:32:47;;;;;;;;;;;;;;;;;;5067656;28;19932;-58
2022/05/18 12:35:14;;;;;;;;;;;;;;;;;;5066514;28;19911;-57
2022/05/18 12:37:39;;;;;;;;;;;;;;;;;;5067574;28;19950;-57
2022/05/18 12:40:06;;;;;;;;;;;;;;;;;;5067618;28;19905;-57
2022/05/18 12:42:33;;;;;;;;;;;;;;;;;;5067156;28;20415;-58
2022/05/18 12:44:59;;;;;;;;;;;;;;;;;;5067600;28;19908;-58
2022/05/18 12:47:25;;;;;;;;;;;;;;;;;;5067531;28;20367;-59
2022/05/18 12:49:51;;;;;;;;;;;;;;;;;;5068650;28;19904;-58
2022/05/18 12:52:18;;;;;;;;;;;;;;;;;;5063670;28;20015;-58
2022/05/18 12:54:44;;;;;;;;;;;;;;;;;;5065093;28;19916;-59
2022/05/18 12:57:19;;;;;;;0.50;0.50;;;;;;;;;;5067190;28;20455;-57
2022/05/18 13:00:03;;;;;;;0.50;0.50;;;;;;;;;;5067960;28;20036;-57
2022/05/18 13:02:29;;;;;;;;;;;;;;;;;;5066470;28;20484;-59
2022/05/18 13:04:57;;;;;;;0.75;0.60;;;;;;;;;;5068364;28;19964;-59
2022/05/18 13:07:30;;;;;;;2.95;0.60;;;;;;;;;;5067047;28;20497;-59
2022/05/18 13:10:08;;;;;;;0.60;0.60;;;;;;;;;;5066455;28;20029;-59
2022/05/18 13:12:49;;;;;;;1.52;0.68;;;;;;;;;;5065833;28;20029;-59
2022/05/18 13:15:15;;;;;;;;;;;;;;;;;;5068277;28;20107;-60
2022/05/18 13:17:41;;;;;;;;;;;;;;;;;;5067564;28;19946;-60
2022/05/18 13:20:07;;;;;;;;;;;;;;;;;;5067424;28;19947;-59
2022/05/18 13:22:33;;;;;;;;;;;;;;;;;;5065742;28;19954;-60
2022/05/18 13:24:59;;;;;;;;;;;;;;;;;;5067078;28;19923;-60
2022/05/18 13:27:25;;;;;;;;;;;;;;;;;;5068066;28;19904;-59
2022/05/18 13:29:51;;;;;;;;;;;;;;;;;;5068672;28;19999;-59
2022/05/18 13:32:16;;;;;;;;;;;;;;;;;;5066160;28;19911;-60
2022/05/18 13:34:42;;;;;;;;;;;;;;;;;;5065416;28;19917;-59
2022/05/18 13:37:08;;;;;;;;;;;;;;;;;;5066276;28;19961;-59
2022/05/18 13:39:34;;;;;;;;;;;;;;;;;;5061491;28;20556;-60
2022/05/18 13:42:00;;;;;;;;;;;;;;;;;;5063577;28;19908;-60
2022/05/18 13:44:27;;;;;;;;;;;;;;;;;;5065536;28;19913;-59
2022/05/18 13:46:54;;;;;;;;;;;;;;;;;;5067177;28;19911;-59
2022/05/18 13:49:20;;;;;;;;;;;;;;;;;;5065407;28;19913;-59
2022/05/18 13:51:46;;;;;;;;;;;;;;;;;;5066229;28;19916;-59
2022/05/18 13:54:12;;;;;;;;;;;;;;;;;;5065402;28;19923;-60
2022/05/18 13:56:38;;;;;;;;;;;;;;;;;;5063280;28;19954;-59
2022/05/18 13:59:04;;;;;;;;;;;;;;;;;;5060949;28;19923;-59
2022/05/18 14:01:30;;;;;;;;;;;;;;;;;;5065478;28;20389;-59
2022/05/18 14:03:57;;;;;;;;;;;;;;;;;;5065242;28;19919;-59
2022/05/18 14:06:23;;;;;;;;;;;;;;;;;;5066232;28;19904;-59
2022/05/18 14:08:49;;;;;;;;;;;;;;;;;;5064341;28;19912;-60
2022/05/18 14:11:16;;;;;;;;;;;;;;;;;;5065748;28;19915;-59
2022/05/18 14:13:42;;;;;;;;;;;;;;;;;;5065351;28;19912;-60
2022/05/18 14:16:09;;;;;;;;;;;;;;;;;;5063928;28;19912;-59
2022/05/18 14:18:36;;;;;;;;;;;;;;;;;;5063690;28;19908;-59
2022/05/18 14:21:08;;;;;;;;;;;;;;;;;;5061955;28;19915;-59
2022/05/18 14:23:35;;;;;;;;;;;;;;;;;;5063451;28;19998;-59
2022/05/18 14:26:02;;;;;;;;;;;;;;;;;;5062788;28;20332;-59
2022/05/18 14:28:29;;;;;;;;;;;;;;;;;;5062613;28;19965;-60
2022/05/18 14:30:55;;;;;;;;;;;;;;;;;;5060162;28;20322;-59
2022/05/18 14:33:21;;;;;;;;;;;;;;;;;;5051848;28;20082;-59
2022/05/18 14:35:47;;;;;;;;;;;;;;;;;;5065278;28;19954;-58
2022/05/18 14:38:14;;;;;;;;;;;;;;;;;;5063916;28;19954;-58
2022/05/18 14:40:40;;;;;;;;;;;;;;;;;;5062969;28;19916;-59
2022/05/18 14:43:06;;;;;;;;;;;;;;;;;;5061430;28;19995;-59
2022/05/18 14:45:32;;;;;;;;;;;;;;;;;;5063473;28;19923;-59
2022/05/18 14:47:58;;;;;;;;;;;;;;;;;;5064547;28;20025;-60
2022/05/18 14:50:24;;;;;;;;;;;;;;;;;;5063585;28;20384;-59
2022/05/18 14:52:50;;;;;;;;;;;;;;;;;;5045415;28;19916;-60
2022/05/18 14:55:16;;;;;;;;;;;;;;;;;;5050542;28;19973;-58
2022/05/18 14:57:42;;;;;;;;;;;;;;;;;;5064355;28;20371;-58
2022/05/18 15:00:08;;;;;;;;;;;;;;;;;;5065984;28;19918;-58
2022/05/18 15:02:35;;;;;;;;;;;;;;;;;;5063058;28;19973;-59
2022/05/18 15:05:01;;;;;;;;;;;;;;;;;;5064746;28;20268;-59
2022/05/18 15:07:28;;;;;;;;;;;;;;;;;;5063648;28;19969;-58
2022/05/18 15:09:53;;;;;;;;;;;;;;;;;;5065133;28;20307;-60
2022/05/18 15:12:19;;;;;;;;;;;;;;;;;;5069561;28;19912;-58
2022/05/18 15:14:45;;;;;;;;;;;;;;;;;;5064058;28;19935;-58
2022/05/18 15:17:11;;;;;;;;;;;;;;;;;;5064762;28;19904;-59
2022/05/18 15:19:37;;;;;;;;;;;;;;;;;;5063370;28;20406;-58
2022/05/18 15:22:04;;;;;;;;;;;;;;;;;;5064725;28;19916;-60
2022/05/18 15:24:29;;;;;;;;;;;;;;;;;;5063085;28;19913;-61
2022/05/18 15:26:55;;;;;;;;;;;;;;;;;;5060374;28;19909;-61
2022/05/18 15:29:21;;;;;;;;;;;;;;;;;;5065430;28;19908;-60
2022/05/18 15:31:47;;;;;;;;;;;;;;;;;;5062232;28;19999;-60
2022/05/18 15:34:14;;;;;;;;;;;;;;;;;;5058925;28;20451;-61
2022/05/18 15:36:40;;;;;;;;;;;;;;;;;;5057933;28;19905;-61
2022/05/18 15:39:07;;;;;;;;;;;;;;;;;;5049200;28;19998;-61
2022/05/18 15:41:33;;;;;;;;;;;;;;;;;;5062973;28;19912;-60
2022/05/18 15:44:00;;;;;;;;;;;;;;;;;;5055127;28;19919;-61
2022/05/18 15:46:26;;;;;;;;;;;;;;;;;;5062658;28;19908;-61
2022/05/18 15:48:52;;;;;;;;;;;;;;;;;;5061753;28;19908;-61
2022/05/18 15:51:20;;;;;;;;;;;;;;;;;;5060600;28;19931;-61
2022/05/18 15:53:46;;;;;;;;;;;;;;;;;;5063706;28;19917;-62
2022/05/18 15:56:12;;;;;;;;;;;;;;;;;;5064043;28;19917;-61
2022/05/18 15:58:39;;;;;;;;;;;;;;;;;;5059333;28;19916;-61
2022/05/18 16:01:05;;;;;;;;;;;;;;;;;;5066074;28;19911;-61
2022/05/18 16:03:31;;;;;;;;;;;;;;;;;;5072737;28;19904;-60
2022/05/18 16:05:58;;;;;;;;;;;;;;;;;;5066759;28;20466;-59
2022/05/18 16:08:24;;;;;;;;;;;;;;;;;;5070251;28;19912;-60
2022/05/18 16:10:50;;;;;;;;;;;;;;;;;;5070066;28;19904;-60
2022/05/18 16:13:16;;;;;;;;;;;;;;;;;;5069779;28;20004;-60
2022/05/18 16:15:42;;;;;;;;;;;;;;;;;;5069669;28;19995;-59
2022/05/18 16:18:08;;;;;;;;;;;;;;;;;;5069437;28;19930;-60
2022/05/18 16:20:34;;;;;;;;;;;;;;;;;;5068129;28;19923;-60
2022/05/18 16:23:00;;;;;;;;;;;;;;;;;;5068022;28;20295;-60
2022/05/18 16:25:26;;;;;;;;;;;;;;;;;;5066632;28;19916;-60
2022/05/18 16:27:52;;;;;;;;;;;;;;;;;;5070181;28;19951;-60
2022/05/18 16:30:18;;;;;;;;;;;;;;;;;;5069027;28;19912;-59
2022/05/18 16:32:44;;;;;;;;;;;;;;;;;;5068001;28;19977;-59
2022/05/18 16:35:10;;;;;;;;;;;;;;;;;;5064535;28;20367;-60
2022/05/18 16:37:36;;;;;;;;;;;;;;;;;;5067815;28;19908;-60
2022/05/18 16:40:02;;;;;;;;;;;;;;;;;;5063340;28;19909;-60
2022/05/18 16:42:28;;;;;;;;;;;;;;;;;;5062116;28;19913;-60
2022/05/18 16:44:54;;;;;;;;;;;;;;;;;;5060785;28;20007;-60
2022/05/18 16:47:20;;;;;;;;;;;;;;;;;;5069576;28;19919;-60
2022/05/18 16:49:46;;;;;;;;;;;;;;;;;;5067384;28;19908;-60
2022/05/18 16:52:12;;;;;;;;;;;;;;;;;;5069293;28;19966;-60
2022/05/18 16:54:42;;;;;;;;;;;;;;;;;;5069612;28;19920;-60
2022/05/18 16:57:08;;;;;;;;;;;;;;;;;;5068968;28;19916;-59